sensor_id;sensor_type;location;lat;lon;timestamp;P1;durP1;ratioP1;P2;durP2;ratioP2
26377;SDS011;14078;50.974;6.786;2023-12-07T00:01:31;25.38;;;13.07;;
26377;SDS011;14078;50.974;6.786;2023-12-07T00:04:00;28.88;;;13.73;;
26377;SDS011;14078;50.974;6.786;2023-12-07T00:06:27;24.30;;;12.10;;
26377;SDS011;14078;50.974;6.786;2023-12-07T00:08:54;20.88;;;11.85;;
26377;SDS011;14078;50.974;6.786;2023-12-07T00:11:21;31.58;;;14.10;;
26377;SDS011;14078;50.974;6.786;2023-12-07T00:13:48;40.53;;;16.73;;
26377;SDS011;14078;50.974;6.786;2023-12-07T00:16:15;34.13;;;15.50;;
26377;SDS011;14078;50.974;6.786;2023-12-07T00:18:42;36.47;;;16.92;;
26377;SDS011;14078;50.974;6.786;2023-12-07T00:21:10;31.25;;;14.48;;
26377;SDS011;14078;50.974;6.786;2023-12-07T00:23:36;36.38;;;16.80;;
26377;SDS011;14078;50.974;6.786;2023-12-07T00:26:03;27.15;;;13.27;;
26377;SDS011;14078;50.974;6.786;2023-12-07T00:28:30;37.33;;;18.42;;
26377;SDS011;14078;50.974;6.786;2023-12-07T00:30:57;27.55;;;13.48;;
26377;SDS011;14078;50.974;6.786;2023-12-07T00:33:23;26.05;;;13.10;;
26377;SDS011;14078;50.974;6.786;2023-12-07T00:35:50;28.20;;;12.63;;
26377;SDS011;14078;50.974;6.786;2023-12-07T00:38:18;30.90;;;13.95;;
26377;SDS011;14078;50.974;6.786;2023-12-07T00:40:46;24.85;;;13.15;;
26377;SDS011;14078;50.974;6.786;2023-12-07T00:43:12;25.42;;;12.02;;
26377;SDS011;14078;50.974;6.786;2023-12-07T00:45:39;28.48;;;13.90;;
26377;SDS011;14078;50.974;6.786;2023-12-07T00:48:06;28.10;;;13.63;;
26377;SDS011;14078;50.974;6.786;2023-12-07T00:50:32;31.15;;;14.48;;
26377;SDS011;14078;50.974;6.786;2023-12-07T00:52:59;29.70;;;14.40;;
26377;SDS011;14078;50.974;6.786;2023-12-07T00:55:27;26.35;;;13.70;;
26377;SDS011;14078;50.974;6.786;2023-12-07T00:57:54;36.58;;;16.25;;
26377;SDS011;14078;50.974;6.786;2023-12-07T01:00:20;29.65;;;13.82;;
26377;SDS011;14078;50.974;6.786;2023-12-07T01:02:47;26.17;;;14.32;;
26377;SDS011;14078;50.974;6.786;2023-12-07T01:05:14;35.72;;;15.85;;
26377;SDS011;14078;50.974;6.786;2023-12-07T01:07:41;25.20;;;12.95;;
26377;SDS011;14078;50.974;6.786;2023-12-07T01:10:08;24.23;;;13.70;;
26377;SDS011;14078;50.974;6.786;2023-12-07T01:12:36;26.65;;;11.88;;
26377;SDS011;14078;50.974;6.786;2023-12-07T01:15:03;22.92;;;12.05;;
26377;SDS011;14078;50.974;6.786;2023-12-07T01:17:30;20.45;;;11.07;;
26377;SDS011;14078;50.974;6.786;2023-12-07T01:19:57;22.08;;;11.85;;
26377;SDS011;14078;50.974;6.786;2023-12-07T01:22:23;27.45;;;13.18;;
26377;SDS011;14078;50.974;6.786;2023-12-07T01:24:50;22.15;;;11.63;;
26377;SDS011;14078;50.974;6.786;2023-12-07T01:27:17;24.58;;;13.35;;
26377;SDS011;14078;50.974;6.786;2023-12-07T01:29:45;27.52;;;13.00;;
26377;SDS011;14078;50.974;6.786;2023-12-07T01:32:11;24.33;;;12.77;;
26377;SDS011;14078;50.974;6.786;2023-12-07T01:34:39;22.85;;;11.38;;
26377;SDS011;14078;50.974;6.786;2023-12-07T01:37:06;22.02;;;11.70;;
26377;SDS011;14078;50.974;6.786;2023-12-07T01:39:32;23.55;;;12.13;;
26377;SDS011;14078;50.974;6.786;2023-12-07T01:41:59;27.45;;;12.32;;
26377;SDS011;14078;50.974;6.786;2023-12-07T01:44:26;27.90;;;12.02;;
26377;SDS011;14078;50.974;6.786;2023-12-07T01:46:55;29.35;;;13.90;;
26377;SDS011;14078;50.974;6.786;2023-12-07T01:49:22;32.63;;;12.10;;
26377;SDS011;14078;50.974;6.786;2023-12-07T01:51:48;26.33;;;12.90;;
26377;SDS011;14078;50.974;6.786;2023-12-07T01:54:15;25.80;;;12.73;;
26377;SDS011;14078;50.974;6.786;2023-12-07T01:56:42;31.10;;;13.43;;
26377;SDS011;14078;50.974;6.786;2023-12-07T01:59:09;26.73;;;12.73;;
26377;SDS011;14078;50.974;6.786;2023-12-07T02:01:37;23.60;;;12.60;;
26377;SDS011;14078;50.974;6.786;2023-12-07T02:04:05;24.48;;;11.70;;
26377;SDS011;14078;50.974;6.786;2023-12-07T02:06:32;29.23;;;13.00;;
26377;SDS011;14078;50.974;6.786;2023-12-07T02:08:59;28.58;;;14.07;;
26377;SDS011;14078;50.974;6.786;2023-12-07T02:11:26;34.75;;;14.35;;
26377;SDS011;14078;50.974;6.786;2023-12-07T02:13:53;31.95;;;12.85;;
26377;SDS011;14078;50.974;6.786;2023-12-07T02:16:23;22.67;;;12.35;;
26377;SDS011;14078;50.974;6.786;2023-12-07T02:18:55;19.58;;;10.68;;
26377;SDS011;14078;50.974;6.786;2023-12-07T02:21:30;27.05;;;11.82;;
26377;SDS011;14078;50.974;6.786;2023-12-07T02:24:01;28.23;;;13.38;;
26377;SDS011;14078;50.974;6.786;2023-12-07T02:29:18;26.30;;;12.35;;
26377;SDS011;14078;50.974;6.786;2023-12-07T02:31:45;34.42;;;13.20;;
26377;SDS011;14078;50.974;6.786;2023-12-07T02:34:12;31.05;;;13.90;;
26377;SDS011;14078;50.974;6.786;2023-12-07T02:36:39;30.23;;;14.07;;
26377;SDS011;14078;50.974;6.786;2023-12-07T02:39:09;29.98;;;13.23;;
26377;SDS011;14078;50.974;6.786;2023-12-07T02:41:37;26.07;;;12.97;;
26377;SDS011;14078;50.974;6.786;2023-12-07T02:44:07;26.52;;;14.73;;
26377;SDS011;14078;50.974;6.786;2023-12-07T02:46:34;28.55;;;13.18;;
26377;SDS011;14078;50.974;6.786;2023-12-07T02:49:00;32.35;;;14.30;;
26377;SDS011;14078;50.974;6.786;2023-12-07T02:51:27;22.42;;;11.27;;
26377;SDS011;14078;50.974;6.786;2023-12-07T02:53:54;21.85;;;11.27;;
26377;SDS011;14078;50.974;6.786;2023-12-07T02:56:20;22.77;;;10.98;;
26377;SDS011;14078;50.974;6.786;2023-12-07T02:58:47;22.65;;;11.48;;
26377;SDS011;14078;50.974;6.786;2023-12-07T03:01:15;23.23;;;11.18;;
26377;SDS011;14078;50.974;6.786;2023-12-07T03:03:41;28.35;;;11.95;;
26377;SDS011;14078;50.974;6.786;2023-12-07T03:06:08;18.20;;;10.57;;
26377;SDS011;14078;50.974;6.786;2023-12-07T03:08:35;27.13;;;11.60;;
26377;SDS011;14078;50.974;6.786;2023-12-07T03:11:01;26.85;;;12.40;;
26377;SDS011;14078;50.974;6.786;2023-12-07T03:13:28;28.75;;;13.48;;
26377;SDS011;14078;50.974;6.786;2023-12-07T03:15:55;29.05;;;12.52;;
26377;SDS011;14078;50.974;6.786;2023-12-07T03:18:23;27.38;;;13.45;;
26377;SDS011;14078;50.974;6.786;2023-12-07T03:20:50;25.88;;;12.98;;
26377;SDS011;14078;50.974;6.786;2023-12-07T03:23:17;30.92;;;13.88;;
26377;SDS011;14078;50.974;6.786;2023-12-07T03:25:44;31.08;;;13.20;;
26377;SDS011;14078;50.974;6.786;2023-12-07T03:28:11;27.73;;;13.10;;
26377;SDS011;14078;50.974;6.786;2023-12-07T03:30:37;30.30;;;13.05;;
26377;SDS011;14078;50.974;6.786;2023-12-07T03:33:04;31.60;;;13.85;;
26377;SDS011;14078;50.974;6.786;2023-12-07T03:35:32;33.78;;;13.68;;
26377;SDS011;14078;50.974;6.786;2023-12-07T03:37:59;29.02;;;13.23;;
26377;SDS011;14078;50.974;6.786;2023-12-07T03:40:26;29.50;;;13.80;;
26377;SDS011;14078;50.974;6.786;2023-12-07T03:42:53;32.78;;;13.98;;
26377;SDS011;14078;50.974;6.786;2023-12-07T03:45:19;36.47;;;13.70;;
26377;SDS011;14078;50.974;6.786;2023-12-07T03:47:46;29.92;;;14.73;;
26377;SDS011;14078;50.974;6.786;2023-12-07T03:50:13;32.38;;;14.30;;
26377;SDS011;14078;50.974;6.786;2023-12-07T03:52:41;28.85;;;13.98;;
26377;SDS011;14078;50.974;6.786;2023-12-07T03:55:07;34.65;;;15.30;;
26377;SDS011;14078;50.974;6.786;2023-12-07T03:57:35;38.45;;;16.00;;
26377;SDS011;14078;50.974;6.786;2023-12-07T04:00:02;31.13;;;14.00;;
26377;SDS011;14078;50.974;6.786;2023-12-07T04:02:32;30.70;;;14.68;;
26377;SDS011;14078;50.974;6.786;2023-12-07T04:04:59;29.80;;;14.18;;
26377;SDS011;14078;50.974;6.786;2023-12-07T04:07:27;32.53;;;14.98;;
26377;SDS011;14078;50.974;6.786;2023-12-07T04:09:55;29.17;;;14.38;;
26377;SDS011;14078;50.974;6.786;2023-12-07T04:12:22;31.52;;;14.02;;
26377;SDS011;14078;50.974;6.786;2023-12-07T04:14:49;29.95;;;14.05;;
26377;SDS011;14078;50.974;6.786;2023-12-07T04:17:16;27.63;;;13.43;;
26377;SDS011;14078;50.974;6.786;2023-12-07T04:19:43;26.33;;;13.00;;
26377;SDS011;14078;50.974;6.786;2023-12-07T04:22:09;31.65;;;14.00;;
26377;SDS011;14078;50.974;6.786;2023-12-07T04:24:36;26.80;;;13.13;;
26377;SDS011;14078;50.974;6.786;2023-12-07T04:27:04;27.23;;;12.38;;
26377;SDS011;14078;50.974;6.786;2023-12-07T04:29:31;29.50;;;13.75;;
26377;SDS011;14078;50.974;6.786;2023-12-07T04:31:58;31.00;;;13.82;;
26377;SDS011;14078;50.974;6.786;2023-12-07T04:34:25;30.92;;;13.63;;
26377;SDS011;14078;50.974;6.786;2023-12-07T04:36:51;28.30;;;13.63;;
26377;SDS011;14078;50.974;6.786;2023-12-07T04:39:18;32.67;;;13.80;;
26377;SDS011;14078;50.974;6.786;2023-12-07T04:41:45;34.13;;;14.05;;
26377;SDS011;14078;50.974;6.786;2023-12-07T04:44:13;30.10;;;13.13;;
26377;SDS011;14078;50.974;6.786;2023-12-07T04:46:40;30.42;;;13.77;;
26377;SDS011;14078;50.974;6.786;2023-12-07T04:49:08;31.38;;;14.38;;
26377;SDS011;14078;50.974;6.786;2023-12-07T04:51:34;26.52;;;13.70;;
26377;SDS011;14078;50.974;6.786;2023-12-07T04:54:01;26.15;;;12.18;;
26377;SDS011;14078;50.974;6.786;2023-12-07T04:56:28;26.55;;;13.02;;
26377;SDS011;14078;50.974;6.786;2023-12-07T04:58:54;27.48;;;13.43;;
26377;SDS011;14078;50.974;6.786;2023-12-07T05:01:22;28.05;;;13.07;;
26377;SDS011;14078;50.974;6.786;2023-12-07T05:03:49;32.40;;;13.60;;
26377;SDS011;14078;50.974;6.786;2023-12-07T05:06:16;29.63;;;13.27;;
26377;SDS011;14078;50.974;6.786;2023-12-07T05:08:42;33.33;;;13.52;;
26377;SDS011;14078;50.974;6.786;2023-12-07T05:11:09;31.08;;;13.13;;
26377;SDS011;14078;50.974;6.786;2023-12-07T05:13:36;33.10;;;13.95;;
26377;SDS011;14078;50.974;6.786;2023-12-07T05:16:02;30.48;;;13.70;;
26377;SDS011;14078;50.974;6.786;2023-12-07T05:18:31;30.67;;;14.02;;
26377;SDS011;14078;50.974;6.786;2023-12-07T05:20:58;28.95;;;13.20;;
26377;SDS011;14078;50.974;6.786;2023-12-07T05:23:24;31.83;;;12.57;;
26377;SDS011;14078;50.974;6.786;2023-12-07T05:25:51;26.50;;;13.70;;
26377;SDS011;14078;50.974;6.786;2023-12-07T05:28:19;29.65;;;12.50;;
26377;SDS011;14078;50.974;6.786;2023-12-07T05:30:46;22.75;;;12.05;;
26377;SDS011;14078;50.974;6.786;2023-12-07T05:33:13;31.73;;;13.07;;
26377;SDS011;14078;50.974;6.786;2023-12-07T05:35:41;33.35;;;13.52;;
26377;SDS011;14078;50.974;6.786;2023-12-07T05:38:07;26.15;;;12.65;;
26377;SDS011;14078;50.974;6.786;2023-12-07T05:40:34;30.33;;;13.60;;
26377;SDS011;14078;50.974;6.786;2023-12-07T05:43:01;24.42;;;12.50;;
26377;SDS011;14078;50.974;6.786;2023-12-07T05:45:28;28.85;;;12.98;;
26377;SDS011;14078;50.974;6.786;2023-12-07T05:47:55;27.58;;;13.38;;
26377;SDS011;14078;50.974;6.786;2023-12-07T05:50:22;26.83;;;12.13;;
26377;SDS011;14078;50.974;6.786;2023-12-07T05:52:50;26.58;;;13.13;;
26377;SDS011;14078;50.974;6.786;2023-12-07T05:55:16;26.83;;;12.35;;
26377;SDS011;14078;50.974;6.786;2023-12-07T05:57:44;35.85;;;13.68;;
26377;SDS011;14078;50.974;6.786;2023-12-07T06:00:11;30.98;;;13.80;;
26377;SDS011;14078;50.974;6.786;2023-12-07T06:02:41;27.52;;;13.93;;
26377;SDS011;14078;50.974;6.786;2023-12-07T06:05:08;27.23;;;12.13;;
26377;SDS011;14078;50.974;6.786;2023-12-07T06:07:36;30.52;;;14.00;;
26377;SDS011;14078;50.974;6.786;2023-12-07T06:10:04;25.00;;;12.45;;
26377;SDS011;14078;50.974;6.786;2023-12-07T06:12:31;28.20;;;13.25;;
26377;SDS011;14078;50.974;6.786;2023-12-07T06:14:58;32.10;;;13.95;;
26377;SDS011;14078;50.974;6.786;2023-12-07T06:17:24;27.13;;;12.77;;
26377;SDS011;14078;50.974;6.786;2023-12-07T06:19:52;24.55;;;12.13;;
26377;SDS011;14078;50.974;6.786;2023-12-07T06:22:18;27.33;;;11.55;;
26377;SDS011;14078;50.974;6.786;2023-12-07T06:24:45;29.13;;;12.98;;
26377;SDS011;14078;50.974;6.786;2023-12-07T06:27:13;33.45;;;14.55;;
26377;SDS011;14078;50.974;6.786;2023-12-07T06:29:40;27.42;;;12.30;;
26377;SDS011;14078;50.974;6.786;2023-12-07T06:32:07;33.58;;;13.45;;
26377;SDS011;14078;50.974;6.786;2023-12-07T06:34:33;32.05;;;14.93;;
26377;SDS011;14078;50.974;6.786;2023-12-07T06:37:05;29.17;;;15.23;;
26377;SDS011;14078;50.974;6.786;2023-12-07T06:39:31;23.42;;;12.25;;
26377;SDS011;14078;50.974;6.786;2023-12-07T06:41:58;25.00;;;12.95;;
26377;SDS011;14078;50.974;6.786;2023-12-07T06:44:27;26.80;;;12.73;;
26377;SDS011;14078;50.974;6.786;2023-12-07T06:46:53;25.58;;;10.93;;
26377;SDS011;14078;50.974;6.786;2023-12-07T06:49:20;24.73;;;11.32;;
26377;SDS011;14078;50.974;6.786;2023-12-07T06:51:47;21.13;;;11.40;;
26377;SDS011;14078;50.974;6.786;2023-12-07T06:54:14;26.48;;;12.80;;
26377;SDS011;14078;50.974;6.786;2023-12-07T06:56:40;23.58;;;11.43;;
26377;SDS011;14078;50.974;6.786;2023-12-07T06:59:07;20.45;;;9.80;;
26377;SDS011;14078;50.974;6.786;2023-12-07T07:01:36;22.17;;;10.48;;
26377;SDS011;14078;50.974;6.786;2023-12-07T07:04:03;24.75;;;10.95;;
26377;SDS011;14078;50.974;6.786;2023-12-07T07:06:30;22.10;;;9.75;;
26377;SDS011;14078;50.974;6.786;2023-12-07T07:08:57;25.40;;;11.05;;
26377;SDS011;14078;50.974;6.786;2023-12-07T07:11:24;22.63;;;11.60;;
26377;SDS011;14078;50.974;6.786;2023-12-07T07:13:51;28.13;;;11.30;;
26377;SDS011;14078;50.974;6.786;2023-12-07T07:16:17;24.98;;;11.57;;
26377;SDS011;14078;50.974;6.786;2023-12-07T07:18:46;23.77;;;10.98;;
26377;SDS011;14078;50.974;6.786;2023-12-07T07:21:13;25.50;;;11.60;;
26377;SDS011;14078;50.974;6.786;2023-12-07T07:23:39;24.73;;;11.10;;
26377;SDS011;14078;50.974;6.786;2023-12-07T07:26:06;25.73;;;11.60;;
26377;SDS011;14078;50.974;6.786;2023-12-07T07:28:33;25.98;;;11.77;;
26377;SDS011;14078;50.974;6.786;2023-12-07T07:31:01;24.83;;;12.18;;
26377;SDS011;14078;50.974;6.786;2023-12-07T07:33:28;21.50;;;10.77;;
26377;SDS011;14078;50.974;6.786;2023-12-07T07:35:56;28.08;;;12.07;;
26377;SDS011;14078;50.974;6.786;2023-12-07T07:38:24;27.95;;;11.52;;
26377;SDS011;14078;50.974;6.786;2023-12-07T07:40:50;23.67;;;9.73;;
26377;SDS011;14078;50.974;6.786;2023-12-07T07:43:17;30.45;;;9.95;;
26377;SDS011;14078;50.974;6.786;2023-12-07T07:45:44;25.70;;;11.70;;
26377;SDS011;14078;50.974;6.786;2023-12-07T07:48:11;27.05;;;11.55;;
26377;SDS011;14078;50.974;6.786;2023-12-07T07:50:38;21.30;;;11.45;;
26377;SDS011;14078;50.974;6.786;2023-12-07T07:53:06;23.92;;;10.63;;
26377;SDS011;14078;50.974;6.786;2023-12-07T07:55:32;22.45;;;10.75;;
26377;SDS011;14078;50.974;6.786;2023-12-07T07:57:59;25.38;;;10.88;;
26377;SDS011;14078;50.974;6.786;2023-12-07T08:00:26;20.95;;;10.45;;
26377;SDS011;14078;50.974;6.786;2023-12-07T08:02:53;22.33;;;10.45;;
26377;SDS011;14078;50.974;6.786;2023-12-07T08:05:19;24.27;;;10.70;;
26377;SDS011;14078;50.974;6.786;2023-12-07T08:07:46;21.13;;;10.80;;
26377;SDS011;14078;50.974;6.786;2023-12-07T08:10:14;23.95;;;11.70;;
26377;SDS011;14078;50.974;6.786;2023-12-07T08:12:41;24.38;;;10.65;;
26377;SDS011;14078;50.974;6.786;2023-12-07T08:15:08;19.88;;;9.60;;
26377;SDS011;14078;50.974;6.786;2023-12-07T08:17:36;16.10;;;7.40;;
26377;SDS011;14078;50.974;6.786;2023-12-07T08:20:03;20.55;;;9.95;;
26377;SDS011;14078;50.974;6.786;2023-12-07T08:22:31;22.40;;;10.45;;
26377;SDS011;14078;50.974;6.786;2023-12-07T08:24:58;30.13;;;12.05;;
26377;SDS011;14078;50.974;6.786;2023-12-07T08:27:27;21.75;;;10.23;;
26377;SDS011;14078;50.974;6.786;2023-12-07T08:29:53;23.00;;;11.13;;
26377;SDS011;14078;50.974;6.786;2023-12-07T08:32:20;25.17;;;11.68;;
26377;SDS011;14078;50.974;6.786;2023-12-07T08:34:47;26.35;;;11.85;;
26377;SDS011;14078;50.974;6.786;2023-12-07T08:37:13;26.77;;;11.10;;
26377;SDS011;14078;50.974;6.786;2023-12-07T08:39:40;26.90;;;10.90;;
26377;SDS011;14078;50.974;6.786;2023-12-07T08:42:07;28.55;;;11.18;;
26377;SDS011;14078;50.974;6.786;2023-12-07T08:44:35;22.70;;;11.18;;
26377;SDS011;14078;50.974;6.786;2023-12-07T08:47:02;27.20;;;12.15;;
26377;SDS011;14078;50.974;6.786;2023-12-07T08:49:30;22.90;;;11.32;;
26377;SDS011;14078;50.974;6.786;2023-12-07T08:51:56;34.33;;;11.10;;
26377;SDS011;14078;50.974;6.786;2023-12-07T08:54:23;26.33;;;10.68;;
26377;SDS011;14078;50.974;6.786;2023-12-07T08:56:50;32.03;;;13.35;;
26377;SDS011;14078;50.974;6.786;2023-12-07T08:59:17;26.70;;;11.70;;
26377;SDS011;14078;50.974;6.786;2023-12-07T09:01:45;26.55;;;11.43;;
26377;SDS011;14078;50.974;6.786;2023-12-07T09:04:11;30.25;;;13.00;;
26377;SDS011;14078;50.974;6.786;2023-12-07T09:06:38;28.65;;;12.30;;
26377;SDS011;14078;50.974;6.786;2023-12-07T09:09:05;31.05;;;11.77;;
26377;SDS011;14078;50.974;6.786;2023-12-07T09:11:31;27.38;;;12.10;;
26377;SDS011;14078;50.974;6.786;2023-12-07T09:13:58;32.33;;;14.60;;
26377;SDS011;14078;50.974;6.786;2023-12-07T09:16:25;32.85;;;12.95;;
26377;SDS011;14078;50.974;6.786;2023-12-07T09:18:53;33.20;;;14.30;;
26377;SDS011;14078;50.974;6.786;2023-12-07T09:21:21;40.95;;;14.30;;
26377;SDS011;14078;50.974;6.786;2023-12-07T09:23:47;33.88;;;13.13;;
26377;SDS011;14078;50.974;6.786;2023-12-07T09:26:14;37.83;;;13.90;;
26377;SDS011;14078;50.974;6.786;2023-12-07T09:28:41;31.92;;;14.00;;
26377;SDS011;14078;50.974;6.786;2023-12-07T09:31:07;31.48;;;14.15;;
26377;SDS011;14078;50.974;6.786;2023-12-07T09:33:34;33.15;;;13.27;;
26377;SDS011;14078;50.974;6.786;2023-12-07T09:36:02;34.35;;;12.95;;
26377;SDS011;14078;50.974;6.786;2023-12-07T09:38:33;34.47;;;13.48;;
26377;SDS011;14078;50.974;6.786;2023-12-07T09:41:02;34.90;;;12.93;;
26377;SDS011;14078;50.974;6.786;2023-12-07T09:43:28;34.53;;;13.52;;
26377;SDS011;14078;50.974;6.786;2023-12-07T09:45:55;32.25;;;14.18;;
26377;SDS011;14078;50.974;6.786;2023-12-07T09:48:24;34.15;;;13.40;;
26377;SDS011;14078;50.974;6.786;2023-12-07T09:50:51;27.90;;;12.05;;
26377;SDS011;14078;50.974;6.786;2023-12-07T09:53:22;32.50;;;13.98;;
26377;SDS011;14078;50.974;6.786;2023-12-07T09:55:49;35.00;;;13.43;;
26377;SDS011;14078;50.974;6.786;2023-12-07T09:58:16;32.08;;;13.05;;
26377;SDS011;14078;50.974;6.786;2023-12-07T10:00:42;29.80;;;13.18;;
26377;SDS011;14078;50.974;6.786;2023-12-07T10:03:09;29.38;;;12.30;;
26377;SDS011;14078;50.974;6.786;2023-12-07T10:05:53;32.53;;;13.20;;
26377;SDS011;14078;50.974;6.786;2023-12-07T10:08:29;28.70;;;12.18;;
26377;SDS011;14078;50.974;6.786;2023-12-07T10:11:04;27.90;;;11.85;;
26377;SDS011;14078;50.974;6.786;2023-12-07T10:13:32;30.60;;;12.73;;
26377;SDS011;14078;50.974;6.786;2023-12-07T10:16:09;24.67;;;11.75;;
26377;SDS011;14078;50.974;6.786;2023-12-07T10:18:37;28.17;;;12.32;;
26377;SDS011;14078;50.974;6.786;2023-12-07T10:21:05;24.60;;;10.35;;
26377;SDS011;14078;50.974;6.786;2023-12-07T10:23:34;21.65;;;10.40;;
26377;SDS011;14078;50.974;6.786;2023-12-07T10:26:01;27.70;;;11.05;;
26377;SDS011;14078;50.974;6.786;2023-12-07T10:28:28;23.40;;;10.63;;
26377;SDS011;14078;50.974;6.786;2023-12-07T10:30:55;21.70;;;9.45;;
26377;SDS011;14078;50.974;6.786;2023-12-07T10:33:23;21.53;;;9.60;;
26377;SDS011;14078;50.974;6.786;2023-12-07T10:35:52;21.95;;;11.55;;
26377;SDS011;14078;50.974;6.786;2023-12-07T10:38:19;25.65;;;11.20;;
26377;SDS011;14078;50.974;6.786;2023-12-07T10:40:47;23.67;;;11.25;;
26377;SDS011;14078;50.974;6.786;2023-12-07T10:43:15;20.30;;;11.05;;
26377;SDS011;14078;50.974;6.786;2023-12-07T10:45:45;24.27;;;9.88;;
26377;SDS011;14078;50.974;6.786;2023-12-07T10:48:13;21.17;;;11.07;;
26377;SDS011;14078;50.974;6.786;2023-12-07T10:50:41;22.42;;;11.38;;
26377;SDS011;14078;50.974;6.786;2023-12-07T10:55:38;27.58;;;12.65;;
26377;SDS011;14078;50.974;6.786;2023-12-07T10:58:12;23.70;;;11.00;;
26377;SDS011;14078;50.974;6.786;2023-12-07T11:00:41;27.55;;;12.80;;
26377;SDS011;14078;50.974;6.786;2023-12-07T11:03:11;31.20;;;12.07;;
26377;SDS011;14078;50.974;6.786;2023-12-07T11:05:41;26.02;;;12.52;;
26377;SDS011;14078;50.974;6.786;2023-12-07T11:08:09;29.73;;;12.23;;
26377;SDS011;14078;50.974;6.786;2023-12-07T11:10:42;27.45;;;14.30;;
26377;SDS011;14078;50.974;6.786;2023-12-07T11:13:17;33.15;;;13.48;;
26377;SDS011;14078;50.974;6.786;2023-12-07T11:15:48;23.05;;;12.25;;
26377;SDS011;14078;50.974;6.786;2023-12-07T11:18:15;22.40;;;11.95;;
26377;SDS011;14078;50.974;6.786;2023-12-07T11:20:42;28.27;;;13.23;;
26377;SDS011;14078;50.974;6.786;2023-12-07T11:23:11;26.83;;;13.05;;
26377;SDS011;14078;50.974;6.786;2023-12-07T11:25:38;18.40;;;10.85;;
26377;SDS011;14078;50.974;6.786;2023-12-07T11:28:05;23.42;;;10.75;;
26377;SDS011;14078;50.974;6.786;2023-12-07T11:33:03;27.02;;;11.20;;
26377;SDS011;14078;50.974;6.786;2023-12-07T11:35:30;22.88;;;10.52;;
26377;SDS011;14078;50.974;6.786;2023-12-07T11:38:06;20.48;;;10.70;;
26377;SDS011;14078;50.974;6.786;2023-12-07T11:40:34;24.02;;;12.20;;
26377;SDS011;14078;50.974;6.786;2023-12-07T11:43:02;16.20;;;9.73;;
26377;SDS011;14078;50.974;6.786;2023-12-07T11:45:41;28.77;;;11.68;;
26377;SDS011;14078;50.974;6.786;2023-12-07T11:48:13;29.50;;;11.57;;
26377;SDS011;14078;50.974;6.786;2023-12-07T11:50:56;22.27;;;10.68;;
26377;SDS011;14078;50.974;6.786;2023-12-07T11:53:25;20.25;;;11.88;;
26377;SDS011;14078;50.974;6.786;2023-12-07T11:55:54;25.08;;;10.43;;
26377;SDS011;14078;50.974;6.786;2023-12-07T11:58:21;21.08;;;10.88;;
26377;SDS011;14078;50.974;6.786;2023-12-07T12:00:50;20.13;;;10.95;;
26377;SDS011;14078;50.974;6.786;2023-12-07T12:03:18;23.40;;;11.52;;
26377;SDS011;14078;50.974;6.786;2023-12-07T12:05:45;21.70;;;11.30;;
26377;SDS011;14078;50.974;6.786;2023-12-07T12:08:12;24.13;;;10.30;;
26377;SDS011;14078;50.974;6.786;2023-12-07T12:10:40;22.05;;;9.85;;
26377;SDS011;14078;50.974;6.786;2023-12-07T12:13:07;18.40;;;9.15;;
26377;SDS011;14078;50.974;6.786;2023-12-07T12:15:34;17.70;;;9.27;;
26377;SDS011;14078;50.974;6.786;2023-12-07T12:18:03;17.30;;;9.75;;
26377;SDS011;14078;50.974;6.786;2023-12-07T12:20:30;19.88;;;9.10;;
26377;SDS011;14078;50.974;6.786;2023-12-07T12:22:57;19.10;;;8.55;;
26377;SDS011;14078;50.974;6.786;2023-12-07T12:25:25;18.13;;;9.63;;
26377;SDS011;14078;50.974;6.786;2023-12-07T12:30:20;18.38;;;8.82;;
26377;SDS011;14078;50.974;6.786;2023-12-07T12:32:47;19.08;;;10.10;;
26377;SDS011;14078;50.974;6.786;2023-12-07T12:35:16;20.73;;;9.77;;
26377;SDS011;14078;50.974;6.786;2023-12-07T12:37:44;20.17;;;8.98;;
26377;SDS011;14078;50.974;6.786;2023-12-07T12:42:40;16.30;;;8.80;;
26377;SDS011;14078;50.974;6.786;2023-12-07T12:45:09;19.27;;;9.13;;
26377;SDS011;14078;50.974;6.786;2023-12-07T12:47:37;14.38;;;8.43;;
26377;SDS011;14078;50.974;6.786;2023-12-07T12:50:04;14.10;;;8.15;;
26377;SDS011;14078;50.974;6.786;2023-12-07T12:52:33;15.40;;;7.95;;
26377;SDS011;14078;50.974;6.786;2023-12-07T12:55:01;15.85;;;8.27;;
26377;SDS011;14078;50.974;6.786;2023-12-07T12:57:27;12.18;;;7.28;;
26377;SDS011;14078;50.974;6.786;2023-12-07T12:59:54;12.40;;;7.25;;
26377;SDS011;14078;50.974;6.786;2023-12-07T13:02:22;14.80;;;7.25;;
26377;SDS011;14078;50.974;6.786;2023-12-07T13:04:48;21.75;;;10.95;;
26377;SDS011;14078;50.974;6.786;2023-12-07T13:07:15;14.95;;;8.13;;
26377;SDS011;14078;50.974;6.786;2023-12-07T13:09:43;16.13;;;7.82;;
26377;SDS011;14078;50.974;6.786;2023-12-07T13:12:10;18.80;;;8.95;;
26377;SDS011;14078;50.974;6.786;2023-12-07T13:14:38;13.38;;;7.22;;
26377;SDS011;14078;50.974;6.786;2023-12-07T13:17:05;15.95;;;8.40;;
26377;SDS011;14078;50.974;6.786;2023-12-07T13:19:33;15.52;;;7.72;;
26377;SDS011;14078;50.974;6.786;2023-12-07T13:21:59;13.20;;;7.22;;
26377;SDS011;14078;50.974;6.786;2023-12-07T13:24:28;15.20;;;8.13;;
26377;SDS011;14078;50.974;6.786;2023-12-07T13:26:56;19.45;;;9.82;;
26377;SDS011;14078;50.974;6.786;2023-12-07T13:29:23;17.83;;;8.90;;
26377;SDS011;14078;50.974;6.786;2023-12-07T13:31:49;15.98;;;8.45;;
26377;SDS011;14078;50.974;6.786;2023-12-07T13:34:16;13.52;;;7.68;;
26377;SDS011;14078;50.974;6.786;2023-12-07T13:36:43;13.48;;;8.05;;
26377;SDS011;14078;50.974;6.786;2023-12-07T13:39:09;11.48;;;7.45;;
26377;SDS011;14078;50.974;6.786;2023-12-07T13:41:37;15.32;;;8.30;;
26377;SDS011;14078;50.974;6.786;2023-12-07T13:44:05;14.57;;;7.85;;
26377;SDS011;14078;50.974;6.786;2023-12-07T13:46:32;15.15;;;7.72;;
26377;SDS011;14078;50.974;6.786;2023-12-07T13:48:59;12.13;;;7.63;;
26377;SDS011;14078;50.974;6.786;2023-12-07T13:51:25;10.07;;;7.72;;
26377;SDS011;14078;50.974;6.786;2023-12-07T13:53:52;13.90;;;8.35;;
26377;SDS011;14078;50.974;6.786;2023-12-07T13:56:21;18.73;;;7.82;;
26377;SDS011;14078;50.974;6.786;2023-12-07T13:58:48;16.38;;;9.43;;
26377;SDS011;14078;50.974;6.786;2023-12-07T14:01:16;13.25;;;6.95;;
26377;SDS011;14078;50.974;6.786;2023-12-07T14:03:43;10.77;;;6.85;;
26377;SDS011;14078;50.974;6.786;2023-12-07T14:06:10;17.77;;;9.70;;
26377;SDS011;14078;50.974;6.786;2023-12-07T14:08:37;12.38;;;7.90;;
26377;SDS011;14078;50.974;6.786;2023-12-07T14:11:04;12.85;;;6.15;;
26377;SDS011;14078;50.974;6.786;2023-12-07T14:13:30;19.10;;;7.07;;
26377;SDS011;14078;50.974;6.786;2023-12-07T14:15:57;12.65;;;6.43;;
26377;SDS011;14078;50.974;6.786;2023-12-07T14:18:25;12.35;;;6.25;;
26377;SDS011;14078;50.974;6.786;2023-12-07T14:20:52;11.98;;;6.70;;
26377;SDS011;14078;50.974;6.786;2023-12-07T14:23:19;12.57;;;6.45;;
26377;SDS011;14078;50.974;6.786;2023-12-07T14:25:46;11.52;;;6.43;;
26377;SDS011;14078;50.974;6.786;2023-12-07T14:28:13;9.57;;;6.05;;
26377;SDS011;14078;50.974;6.786;2023-12-07T14:30:42;14.52;;;6.78;;
26377;SDS011;14078;50.974;6.786;2023-12-07T14:33:08;10.45;;;6.72;;
26377;SDS011;14078;50.974;6.786;2023-12-07T14:35:37;15.70;;;6.72;;
26377;SDS011;14078;50.974;6.786;2023-12-07T14:38:04;11.85;;;6.78;;